Time;durP1;ratioP1;P1;durP2;ratioP2;P2;SDS_P1;SDS_P2;PMS_P1;PMS_P2;Temp;Humidity;BMP_temperature;BMP_pressure;BME280_temperature;BME280_humidity;BME280_pressure;Samples;Min_cycle;Max_cycle;Signal;HPM_P1;HPM_P2
2024/04/05 00:00:14;;;;;;;11.80;2.90;;;;;;;;;;5051622;28;20052;-60
2024/04/05 00:02:43;;;;;;;11.45;3.45;;;;;;;;;;5052402;28;20406;-60
2024/04/05 00:05:13;;;;;;;12.00;3.05;;;;;;;;;;5051839;28;20375;-60
2024/04/05 00:07:39;;;;;;;12.20;3.50;;;;;;;;;;5056567;28;20526;-61
2024/04/05 00:10:07;;;;;;;10.77;3.63;;;;;;;;;;5056474;28;20049;-60
2024/04/05 00:12:33;;;;;;;7.18;3.10;;;;;;;;;;5055942;28;20049;-60
2024/04/05 00:15:00;;;;;;;13.00;3.45;;;;;;;;;;5056319;28;20066;-60
2024/04/05 00:17:26;;;;;;;10.40;2.88;;;;;;;;;;5056273;28;20048;-59
2024/04/05 00:19:54;;;;;;;13.50;3.22;;;;;;;;;;5056553;28;20051;-60
2024/04/05 00:22:21;;;;;;;8.65;2.55;;;;;;;;;;5056124;28;20107;-60
2024/04/05 00:24:48;;;;;;;10.93;2.92;;;;;;;;;;5056114;28;20049;-60
2024/04/05 00:27:13;;;;;;;7.57;2.47;;;;;;;;;;5056186;28;20060;-60
2024/04/05 00:29:40;;;;;;;8.70;3.08;;;;;;;;;;5055964;28;20045;-60
2024/04/05 00:32:06;;;;;;;10.20;2.70;;;;;;;;;;5055978;28;20052;-59
2024/04/05 00:34:33;;;;;;;7.95;2.80;;;;;;;;;;5055830;28;20045;-60
2024/04/05 00:37:00;;;;;;;10.90;2.75;;;;;;;;;;5055649;28;20061;-60
2024/04/05 00:39:27;;;;;;;10.77;3.47;;;;;;;;;;5055763;28;20402;-60
2024/04/05 00:41:53;;;;;;;11.50;3.28;;;;;;;;;;5055773;28;20060;-61
2024/04/05 00:44:19;;;;;;;10.50;2.67;;;;;;;;;;5055160;28;20059;-59
2024/04/05 00:46:45;;;;;;;11.30;2.95;;;;;;;;;;5056439;28;20064;-59
2024/04/05 00:49:12;;;;;;;11.93;2.53;;;;;;;;;;5055065;28;20128;-59
2024/04/05 00:51:38;;;;;;;8.63;2.75;;;;;;;;;;5055323;28;20061;-59
2024/04/05 00:54:07;;;;;;;7.72;2.97;;;;;;;;;;5055528;28;20044;-60
2024/04/05 00:56:33;;;;;;;8.57;3.00;;;;;;;;;;5055709;28;20064;-61
2024/04/05 00:59:00;;;;;;;8.55;2.53;;;;;;;;;;5055403;28;20061;-60
2024/04/05 01:01:26;;;;;;;10.98;2.75;;;;;;;;;;5055621;28;20060;-59
2024/04/05 01:03:53;;;;;;;12.50;3.20;;;;;;;;;;5055365;28;20048;-60
2024/04/05 01:06:19;;;;;;;8.88;2.75;;;;;;;;;;5055231;28;20052;-59
2024/04/05 01:08:46;;;;;;;9.70;3.05;;;;;;;;;;5055241;28;20053;-59
2024/04/05 01:11:13;;;;;;;8.85;2.72;;;;;;;;;;5055132;28;20053;-60
2024/04/05 01:13:40;;;;;;;9.98;2.78;;;;;;;;;;5055318;28;20059;-60
2024/04/05 01:16:06;;;;;;;13.32;3.00;;;;;;;;;;5055459;28;20063;-60
2024/04/05 01:18:33;;;;;;;9.43;2.65;;;;;;;;;;5054059;28;20436;-59
2024/04/05 01:20:59;;;;;;;8.15;2.80;;;;;;;;;;5055231;28;20061;-59
2024/04/05 01:23:28;;;;;;;9.50;2.70;;;;;;;;;;5054753;28;20063;-59
2024/04/05 01:25:57;;;;;;;7.03;3.08;;;;;;;;;;5054957;28;20053;-60
2024/04/05 01:28:24;;;;;;;11.80;2.53;;;;;;;;;;5054387;28;20159;-60
2024/04/05 01:30:50;;;;;;;10.85;3.17;;;;;;;;;;5055049;28;20059;-60
2024/04/05 01:33:16;;;;;;;7.70;2.72;;;;;;;;;;5054665;28;20064;-60
2024/04/05 01:35:42;;;;;;;7.28;2.60;;;;;;;;;;5054807;28;20513;-59
2024/04/05 01:38:09;;;;;;;11.65;3.20;;;;;;;;;;5054670;28;20120;-60
2024/04/05 01:40:35;;;;;;;12.93;3.17;;;;;;;;;;5055171;28;20479;-59
2024/04/05 01:43:03;;;;;;;10.10;2.50;;;;;;;;;;5054110;28;20048;-60
2024/04/05 01:45:29;;;;;;;8.55;2.58;;;;;;;;;;5054429;28;20063;-59
2024/04/05 01:47:55;;;;;;;10.65;2.90;;;;;;;;;;5054523;28;20132;-60
2024/04/05 01:50:23;;;;;;;9.68;2.60;;;;;;;;;;5054709;28;20048;-59
2024/04/05 01:52:49;;;;;;;9.90;3.03;;;;;;;;;;5054203;28;20055;-59
2024/04/05 01:55:15;;;;;;;10.50;3.10;;;;;;;;;;5055156;28;20394;-59
2024/04/05 01:57:42;;;;;;;10.43;2.83;;;;;;;;;;5054547;28;20053;-60
2024/04/05 02:00:10;;;;;;;10.65;3.20;;;;;;;;;;5054423;28;20065;-60
2024/04/05 02:02:37;;;;;;;9.40;3.15;;;;;;;;;;5046129;28;20508;-60
2024/04/05 02:05:06;;;;;;;12.25;3.38;;;;;;;;;;5054837;28;20060;-59
2024/04/05 02:07:33;;;;;;;9.63;3.23;;;;;;;;;;5053585;28;20410;-60
2024/04/05 02:09:59;;;;;;;14.80;3.03;;;;;;;;;;5053831;28;20059;-60
2024/04/05 02:12:28;;;;;;;14.18;3.33;;;;;;;;;;5054140;28;20053;-59
2024/04/05 02:14:53;;;;;;;11.13;2.60;;;;;;;;;;5053867;28;20049;-60
2024/04/05 02:17:22;;;;;;;14.57;3.20;;;;;;;;;;5053723;28;20510;-60
2024/04/05 02:19:50;;;;;;;10.90;2.85;;;;;;;;;;5053622;28;20467;-59
2024/04/05 02:22:17;;;;;;;9.98;3.03;;;;;;;;;;5053796;28;20056;-60
2024/04/05 02:24:43;;;;;;;9.57;2.83;;;;;;;;;;5053654;28;20056;-61
2024/04/05 02:27:10;;;;;;;12.73;2.85;;;;;;;;;;5053666;28;20125;-60
2024/04/05 02:29:35;;;;;;;12.10;3.10;;;;;;;;;;5053365;28;20049;-59
2024/04/05 02:32:02;;;;;;;12.82;3.42;;;;;;;;;;5053584;28;20486;-59
2024/04/05 02:34:30;;;;;;;10.98;3.50;;;;;;;;;;5053282;28;20064;-59
2024/04/05 02:36:56;;;;;;;12.13;2.88;;;;;;;;;;5053579;28;20052;-59
2024/04/05 02:39:22;;;;;;;11.70;3.42;;;;;;;;;;5053487;28;20049;-60
2024/04/05 02:41:49;;;;;;;10.55;3.42;;;;;;;;;;5053532;28;20051;-59
2024/04/05 02:44:15;;;;;;;11.27;3.28;;;;;;;;;;5052867;28;20487;-58
2024/04/05 02:46:42;;;;;;;11.38;3.22;;;;;;;;;;5053061;28;20049;-60
2024/04/05 02:49:08;;;;;;;9.65;3.28;;;;;;;;;;5053004;28;20053;-59
2024/04/05 02:51:36;;;;;;;13.20;3.65;;;;;;;;;;5053388;28;20059;-59
2024/04/05 02:54:02;;;;;;;14.60;3.03;;;;;;;;;;5053413;28;20052;-59
2024/04/05 02:56:29;;;;;;;14.52;3.28;;;;;;;;;;5052966;28;20049;-59
2024/04/05 02:58:56;;;;;;;10.27;2.90;;;;;;;;;;5053011;28;20061;-59
2024/04/05 03:01:23;;;;;;;13.80;3.42;;;;;;;;;;5053531;28;20044;-59
2024/04/05 03:03:50;;;;;;;10.02;3.15;;;;;;;;;;5053155;28;20052;-58
2024/04/05 03:06:17;;;;;;;10.23;3.25;;;;;;;;;;5053335;28;20463;-61
2024/04/05 03:08:44;;;;;;;13.27;3.80;;;;;;;;;;5052777;28;20049;-58
2024/04/05 03:11:11;;;;;;;11.65;3.42;;;;;;;;;;5053333;28;20053;-59
2024/04/05 03:13:37;;;;;;;12.85;3.42;;;;;;;;;;5052749;28;20045;-59
2024/04/05 03:16:04;;;;;;;13.02;3.75;;;;;;;;;;5053120;28;20052;-60
2024/04/05 03:18:30;;;;;;;10.35;3.35;;;;;;;;;;5053192;28;20509;-60
2024/04/05 03:20:57;;;;;;;12.77;3.15;;;;;;;;;;5052675;28;20142;-60
2024/04/05 03:23:22;;;;;;;13.98;3.28;;;;;;;;;;5052561;28;20398;-60
2024/04/05 03:25:51;;;;;;;10.10;3.50;;;;;;;;;;5052406;28;20045;-59
2024/04/05 03:28:16;;;;;;;9.57;2.95;;;;;;;;;;5052829;28;20052;-60
2024/04/05 03:30:43;;;;;;;9.43;3.20;;;;;;;;;;5052508;28;20401;-60
2024/04/05 03:33:09;;;;;;;8.30;2.72;;;;;;;;;;5052720;28;20053;-60
2024/04/05 03:35:37;;;;;;;11.40;3.63;;;;;;;;;;5052596;28;20094;-60
2024/04/05 03:38:04;;;;;;;9.30;3.03;;;;;;;;;;5052406;28;20056;-60
2024/04/05 03:40:31;;;;;;;9.98;3.20;;;;;;;;;;5051832;28;20081;-60
2024/04/05 03:42:58;;;;;;;10.73;3.50;;;;;;;;;;5052087;28;20063;-60
2024/04/05 03:45:25;;;;;;;9.93;3.15;;;;;;;;;;5051750;28;20045;-59
2024/04/05 03:47:51;;;;;;;10.85;3.10;;;;;;;;;;5051555;28;20053;-60
2024/04/05 03:50:18;;;;;;;12.23;3.30;;;;;;;;;;5052309;28;20080;-60
2024/04/05 03:52:44;;;;;;;11.93;3.22;;;;;;;;;;5052729;28;20049;-59
2024/04/05 03:55:11;;;;;;;14.90;3.42;;;;;;;;;;5052303;28;20055;-59
2024/04/05 03:57:37;;;;;;;15.15;3.65;;;;;;;;;;5052464;28;20049;-60
2024/04/05 04:00:06;;;;;;;8.15;2.90;;;;;;;;;;5052266;28;20053;-58
2024/04/05 04:02:32;;;;;;;12.32;3.60;;;;;;;;;;5052394;28;20080;-60
2024/04/05 04:04:59;;;;;;;11.35;3.30;;;;;;;;;;5052142;28;20494;-61
2024/04/05 04:07:24;;;;;;;10.55;2.90;;;;;;;;;;5052934;28;20068;-60
2024/04/05 04:09:51;;;;;;;10.00;3.00;;;;;;;;;;5052541;28;20080;-60
2024/04/05 04:12:17;;;;;;;13.43;3.72;;;;;;;;;;5051981;28;20056;-59
2024/04/05 04:14:44;;;;;;;10.57;3.08;;;;;;;;;;5051824;28;20045;-59
2024/04/05 04:17:11;;;;;;;12.68;3.38;;;;;;;;;;5052211;28;20490;-59
2024/04/05 04:19:38;;;;;;;9.95;3.10;;;;;;;;;;5051871;28;20390;-59
2024/04/05 04:22:07;;;;;;;15.57;3.70;;;;;;;;;;5051711;28;20056;-60
2024/04/05 04:24:34;;;;;;;11.23;3.25;;;;;;;;;;5051703;28;20375;-59
2024/04/05 04:27:01;;;;;;;10.82;3.47;;;;;;;;;;5051964;28;20064;-59
2024/04/05 04:29:30;;;;;;;8.32;2.75;;;;;;;;;;5051747;28;20060;-59
2024/04/05 04:31:56;;;;;;;10.90;3.50;;;;;;;;;;5051667;28;20048;-58
2024/04/05 04:34:24;;;;;;;10.82;3.13;;;;;;;;;;5052081;28;20048;-58
2024/04/05 04:36:50;;;;;;;9.40;3.45;;;;;;;;;;5052046;28;20495;-59
2024/04/05 04:39:17;;;;;;;9.32;3.17;;;;;;;;;;5052251;28;20049;-59
2024/04/05 04:41:43;;;;;;;8.82;3.50;;;;;;;;;;5051780;28;20064;-59
2024/04/05 04:44:10;;;;;;;9.85;3.45;;;;;;;;;;5051269;28;20072;-59
2024/04/05 04:46:36;;;;;;;9.93;3.45;;;;;;;;;;5051329;28;20048;-59
2024/04/05 04:49:02;;;;;;;10.23;3.08;;;;;;;;;;5051480;28;20512;-59
2024/04/05 04:51:30;;;;;;;11.35;3.17;;;;;;;;;;5052727;28;20060;-59
2024/04/05 04:53:57;;;;;;;8.45;3.50;;;;;;;;;;5055832;28;20486;-59
2024/04/05 04:56:22;;;;;;;10.00;3.00;;;;;;;;;;5055729;28;20060;-58
2024/04/05 04:58:50;;;;;;;10.60;3.28;;;;;;;;;;5055201;28;20049;-59
2024/04/05 05:01:16;;;;;;;10.38;3.60;;;;;;;;;;5055037;28;20517;-60
2024/04/05 05:03:42;;;;;;;11.05;3.40;;;;;;;;;;5054813;28;20053;-59
2024/04/05 05:06:08;;;;;;;10.93;2.97;;;;;;;;;;5055733;28;20060;-58
2024/04/05 05:08:36;;;;;;;13.40;3.53;;;;;;;;;;5055104;28;20131;-59
2024/04/05 05:11:02;;;;;;;9.30;3.22;;;;;;;;;;5055748;28;20057;-59
2024/04/05 05:13:29;;;;;;;8.35;2.80;;;;;;;;;;5055026;28;20048;-58
2024/04/05 05:15:55;;;;;;;12.00;3.75;;;;;;;;;;5055393;28;20049;-59
2024/04/05 05:18:22;;;;;;;10.57;3.45;;;;;;;;;;5055106;28;20092;-59
2024/04/05 05:20:48;;;;;;;8.93;3.10;;;;;;;;;;5055081;28;20053;-59
2024/04/05 05:23:15;;;;;;;19.33;3.97;;;;;;;;;;5054867;28;20505;-59
2024/04/05 05:25:44;;;;;;;10.77;3.42;;;;;;;;;;5054944;28;20060;-59
2024/04/05 05:28:11;;;;;;;11.77;3.83;;;;;;;;;;5054699;28;20412;-59
2024/04/05 05:30:37;;;;;;;11.10;4.38;;;;;;;;;;5054887;28;20512;-59
2024/04/05 05:33:04;;;;;;;10.30;4.10;;;;;;;;;;5054998;28;20048;-60
2024/04/05 05:35:30;;;;;;;13.90;4.63;;;;;;;;;;5054679;28;20068;-60
2024/04/05 05:37:57;;;;;;;13.10;4.15;;;;;;;;;;5054833;28;20049;-60
2024/04/05 05:40:22;;;;;;;17.25;5.15;;;;;;;;;;5055258;28;20053;-60
2024/04/05 05:42:51;;;;;;;12.13;4.93;;;;;;;;;;5053945;28;20060;-60
2024/04/05 05:45:18;;;;;;;12.32;4.63;;;;;;;;;;5054340;28;20056;-60
2024/04/05 05:47:45;;;;;;;11.25;4.68;;;;;;;;;;5054627;28;20048;-59
2024/04/05 05:50:11;;;;;;;10.43;4.05;;;;;;;;;;5054200;28;20048;-60
2024/04/05 05:52:38;;;;;;;13.30;4.05;;;;;;;;;;5053943;28;20067;-59
2024/04/05 05:55:04;;;;;;;17.02;4.60;;;;;;;;;;5054524;28;20052;-59
2024/04/05 05:57:31;;;;;;;16.27;4.72;;;;;;;;;;5054184;28;20045;-60
2024/04/05 05:59:58;;;;;;;15.32;4.78;;;;;;;;;;5054538;28;20061;-60
2024/04/05 06:02:25;;;;;;;17.73;5.85;;;;;;;;;;5054469;28;20053;-60
2024/04/05 06:04:51;;;;;;;14.80;4.05;;;;;;;;;;5053446;28;20053;-59
2024/04/05 06:07:18;;;;;;;15.00;5.50;;;;;;;;;;5054114;28;20505;-60
2024/04/05 06:09:50;;;;;;;15.18;4.38;;;;;;;;;;5054121;28;20394;-60
2024/04/05 06:12:17;;;;;;;12.93;4.18;;;;;;;;;;5054294;28;20494;-59
2024/04/05 06:14:43;;;;;;;16.42;4.60;;;;;;;;;;5054094;28;20053;-60
2024/04/05 06:17:11;;;;;;;11.50;3.78;;;;;;;;;;5053895;28;20049;-60
2024/04/05 06:19:39;;;;;;;10.82;3.25;;;;;;;;;;5053798;28;20049;-60
2024/04/05 06:22:06;;;;;;;9.40;3.38;;;;;;;;;;5053467;28;20049;-60
2024/04/05 06:24:32;;;;;;;14.00;3.63;;;;;;;;;;5053302;28;20052;-59
2024/04/05 06:26:59;;;;;;;9.57;3.00;;;;;;;;;;5053950;28;20053;-60
2024/04/05 06:29:24;;;;;;;10.23;3.17;;;;;;;;;;5053475;28;20509;-60
2024/04/05 06:31:51;;;;;;;11.63;3.25;;;;;;;;;;5053520;28;20060;-60
2024/04/05 06:34:18;;;;;;;12.15;3.60;;;;;;;;;;5053224;28;20049;-59
2024/04/05 06:36:46;;;;;;;11.85;3.65;;;;;;;;;;5053134;28;20053;-59
2024/04/05 06:39:12;;;;;;;8.52;2.90;;;;;;;;;;5053357;28;20068;-59
2024/04/05 06:41:39;;;;;;;11.65;3.20;;;;;;;;;;5053505;28;20045;-60
2024/04/05 06:44:05;;;;;;;12.82;3.00;;;;;;;;;;5053336;28;20053;-60
2024/04/05 06:46:32;;;;;;;8.73;3.13;;;;;;;;;;5053059;28;20492;-60
2024/04/05 06:48:57;;;;;;;7.15;2.63;;;;;;;;;;5053400;28;20513;-60
2024/04/05 06:51:25;;;;;;;9.98;2.63;;;;;;;;;;5053354;28;20049;-60
2024/04/05 06:53:51;;;;;;;8.48;2.47;;;;;;;;;;5052743;28;20057;-60
2024/04/05 06:56:18;;;;;;;7.45;2.95;;;;;;;;;;5053369;28;20055;-61
2024/04/05 06:58:44;;;;;;;10.48;2.97;;;;;;;;;;5053043;28;20061;-61
2024/04/05 07:01:11;;;;;;;5.80;2.30;;;;;;;;;;5053091;28;20055;-60
2024/04/05 07:03:36;;;;;;;8.18;2.53;;;;;;;;;;5052453;28;20407;-60
2024/04/05 07:06:03;;;;;;;8.73;2.65;;;;;;;;;;5052481;28;20063;-60
2024/04/05 07:08:31;;;;;;;10.63;2.63;;;;;;;;;;5052616;28;20053;-60
2024/04/05 07:10:58;;;;;;;10.30;2.97;;;;;;;;;;5052853;28;20059;-60
2024/04/05 07:13:24;;;;;;;8.13;2.15;;;;;;;;;;5052895;28;20059;-60
2024/04/05 07:15:50;;;;;;;7.90;2.28;;;;;;;;;;5052185;28;20462;-60
2024/04/05 07:18:18;;;;;;;5.28;2.00;;;;;;;;;;5052798;28;20055;-60
2024/04/05 07:20:45;;;;;;;7.13;2.38;;;;;;;;;;5052799;28;20052;-60
2024/04/05 07:23:11;;;;;;;6.30;2.30;;;;;;;;;;5052780;28;20056;-60
2024/04/05 07:25:39;;;;;;;6.72;2.15;;;;;;;;;;5052304;28;20056;-60
2024/04/05 07:28:06;;;;;;;8.60;2.08;;;;;;;;;;5052605;28;20396;-60
2024/04/05 07:30:33;;;;;;;5.00;2.20;;;;;;;;;;5052427;28;20044;-60
2024/04/05 07:33:00;;;;;;;6.70;2.00;;;;;;;;;;5052734;28;20505;-60
2024/04/05 07:35:28;;;;;;;7.18;2.00;;;;;;;;;;5052358;28;20463;-60
2024/04/05 07:37:53;;;;;;;7.85;2.13;;;;;;;;;;5052249;28;20072;-61
2024/04/05 07:40:20;;;;;;;5.80;1.95;;;;;;;;;;5052148;28;20048;-60
2024/04/05 07:42:51;;;;;;;7.75;2.45;;;;;;;;;;5052467;28;20497;-60
2024/04/05 07:45:18;;;;;;;5.53;2.05;;;;;;;;;;5052309;28;20060;-60
2024/04/05 07:47:46;;;;;;;7.85;2.50;;;;;;;;;;5052286;28;20057;-60
2024/04/05 07:50:12;;;;;;;8.00;1.98;;;;;;;;;;5052140;28;20049;-60
2024/04/05 07:52:38;;;;;;;5.22;1.95;;;;;;;;;;5052160;28;20053;-60
2024/04/05 07:55:05;;;;;;;7.15;2.15;;;;;;;;;;5051966;28;20049;-59
2024/04/05 07:57:31;;;;;;;5.13;1.90;;;;;;;;;;5052201;28;20079;-59
2024/04/05 07:59:59;;;;;;;5.53;1.92;;;;;;;;;;5051990;28;20053;-60
2024/04/05 08:02:28;;;;;;;8.50;2.22;;;;;;;;;;5052090;28;20057;-60
2024/04/05 08:04:56;;;;;;;5.35;2.03;;;;;;;;;;5051981;28;20079;-59
2024/04/05 08:07:23;;;;;;;6.03;1.90;;;;;;;;;;5052688;28;20519;-59
2024/04/05 08:09:51;;;;;;;5.40;1.80;;;;;;;;;;5052287;28;20053;-60
2024/04/05 08:12:17;;;;;;;6.05;1.90;;;;;;;;;;5052088;28;20053;-60
2024/04/05 08:14:44;;;;;;;8.23;1.75;;;;;;;;;;5051755;28;20045;-60
2024/04/05 08:17:11;;;;;;;7.57;2.50;;;;;;;;;;5051759;28;20056;-60
2024/04/05 08:19:38;;;;;;;7.07;2.08;;;;;;;;;;5051825;28;20048;-60
2024/04/05 08:22:04;;;;;;;5.70;2.08;;;;;;;;;;5051543;28;20461;-60
2024/04/05 08:24:31;;;;;;;5.68;2.10;;;;;;;;;;5051395;28;20195;-59
2024/04/05 08:26:58;;;;;;;7.22;2.08;;;;;;;;;;5052782;28;20053;-60
2024/04/05 08:29:25;;;;;;;4.32;1.80;;;;;;;;;;5055405;28;20056;-60
2024/04/05 08:31:52;;;;;;;5.43;2.03;;;;;;;;;;5056166;28;20053;-60
2024/04/05 08:34:20;;;;;;;5.13;1.67;;;;;;;;;;5055353;28;20060;-59
2024/04/05 08:36:48;;;;;;;4.32;1.38;;;;;;;;;;5055771;28;20053;-59
2024/04/05 08:39:17;;;;;;;6.68;1.80;;;;;;;;;;5055832;28;20474;-59
2024/04/05 08:41:44;;;;;;;4.50;1.63;;;;;;;;;;5055667;28;20056;-59
2024/04/05 08:44:11;;;;;;;4.63;1.77;;;;;;;;;;5055369;28;20055;-60
2024/04/05 08:46:37;;;;;;;4.53;1.67;;;;;;;;;;5055305;28;20387;-60
2024/04/05 08:49:06;;;;;;;5.43;2.03;;;;;;;;;;5054888;28;20064;-60
2024/04/05 08:51:33;;;;;;;5.47;1.70;;;;;;;;;;5055445;28;20049;-60
2024/04/05 08:54:00;;;;;;;4.03;1.77;;;;;;;;;;5055202;28;20490;-60
2024/04/05 08:56:28;;;;;;;6.13;1.98;;;;;;;;;;5051402;28;20394;-59
2024/04/05 08:58:55;;;;;;;5.70;1.77;;;;;;;;;;5044961;28;20415;-60
2024/04/05 09:01:21;;;;;;;4.97;1.70;;;;;;;;;;5044856;28;20045;-60
2024/04/05 09:03:49;;;;;;;4.20;1.60;;;;;;;;;;5042722;28;20056;-60
2024/04/05 09:06:15;;;;;;;4.45;1.70;;;;;;;;;;5037352;28;20052;-61
2024/04/05 09:08:48;;;;;;;4.43;1.90;;;;;;;;;;5043177;28;20049;-62
2024/04/05 09:11:19;;;;;;;4.15;1.60;;;;;;;;;;5041654;28;20061;-61
2024/04/05 09:13:55;;;;;;;6.15;2.05;;;;;;;;;;5040958;28;20049;-60
2024/04/05 09:16:21;;;;;;;6.22;2.05;;;;;;;;;;5044652;28;21043;-61
2024/04/05 09:18:49;;;;;;;5.53;1.83;;;;;;;;;;5052750;28;20045;-61
2024/04/05 09:21:14;;;;;;;5.70;2.05;;;;;;;;;;5046528;28;20053;-61
2024/04/05 09:23:44;;;;;;;4.35;1.58;;;;;;;;;;5049925;28;20041;-61
2024/04/05 09:26:11;;;;;;;4.20;1.52;;;;;;;;;;5043712;28;20403;-61
2024/04/05 09:28:38;;;;;;;5.47;2.38;;;;;;;;;;5043989;28;20048;-61
2024/04/05 09:31:05;;;;;;;6.07;1.88;;;;;;;;;;5052882;28;20414;-60
2024/04/05 09:33:31;;;;;;;5.40;1.80;;;;;;;;;;5050651;28;20049;-60
2024/04/05 09:36:00;;;;;;;7.60;2.17;;;;;;;;;;5042212;28;20148;-61
2024/04/05 09:38:29;;;;;;;5.40;1.60;;;;;;;;;;5047784;28;20045;-60
2024/04/05 09:40:56;;;;;;;5.97;1.50;;;;;;;;;;5046355;28;20057;-61
2024/04/05 09:43:24;;;;;;;8.80;1.92;;;;;;;;;;5046991;28;20052;-61
2024/04/05 09:45:51;;;;;;;5.30;1.90;;;;;;;;;;5051741;28;20056;-61
2024/04/05 09:48:20;;;;;;;5.82;1.50;;;;;;;;;;5050500;28;20521;-61
2024/04/05 09:50:48;;;;;;;5.60;1.80;;;;;;;;;;5040832;28;20065;-61
2024/04/05 09:53:18;;;;;;;5.03;1.65;;;;;;;;;;5041165;28;20048;-60
2024/04/05 09:55:49;;;;;;;2.95;1.30;;;;;;;;;;5033212;28;20483;-59
2024/04/05 09:58:16;;;;;;;6.75;1.98;;;;;;;;;;5034528;28;20056;-60
2024/04/05 10:00:43;;;;;;;5.55;1.70;;;;;;;;;;5034497;28;20402;-60
2024/04/05 10:03:11;;;;;;;5.30;1.70;;;;;;;;;;5034996;28;20061;-59
2024/04/05 10:05:37;;;;;;;4.85;1.23;;;;;;;;;;5037498;28;20057;-61
2024/04/05 10:08:10;;;;;;;4.95;1.48;;;;;;;;;;5043694;28;20045;-60
2024/04/05 10:10:36;;;;;;;6.28;1.80;;;;;;;;;;5042517;28;20060;-61
2024/04/05 10:13:14;;;;;;;4.82;1.55;;;;;;;;;;5034129;28;20479;-61
2024/04/05 10:15:50;;;;;;;4.20;1.52;;;;;;;;;;5031410;28;20054;-61
2024/04/05 10:18:24;;;;;;;4.05;1.58;;;;;;;;;;5049315;28;20045;-61
2024/04/05 10:20:57;;;;;;;4.38;1.42;;;;;;;;;;5037855;28;20084;-61
2024/04/05 10:23:24;;;;;;;3.50;1.40;;;;;;;;;;5041273;28;20064;-61
2024/04/05 10:25:52;;;;;;;5.18;1.90;;;;;;;;;;5049015;28;20466;-61
2024/04/05 10:28:19;;;;;;;5.15;1.55;;;;;;;;;;5047574;28;20048;-60
2024/04/05 10:30:45;;;;;;;4.70;1.42;;;;;;;;;;5040209;28;20060;-60
2024/04/05 10:33:17;;;;;;;3.50;1.50;;;;;;;;;;5033901;28;20041;-61
2024/04/05 10:35:45;;;;;;;5.10;1.60;;;;;;;;;;5041745;28;20049;-61
2024/04/05 10:38:12;;;;;;;11.48;1.70;;;;;;;;;;5035662;28;20050;-60
2024/04/05 10:40:37;;;;;;;12.18;2.40;;;;;;;;;;5033154;28;20471;-60
2024/04/05 10:43:08;;;;;;;4.00;1.48;;;;;;;;;;5033273;28;20060;-60
2024/04/05 10:45:34;;;;;;;4.85;1.50;;;;;;;;;;5032900;28;20490;-59
2024/04/05 10:48:01;;;;;;;4.85;1.77;;;;;;;;;;5036874;28;20057;-61
2024/04/05 10:50:27;;;;;;;5.90;2.05;;;;;;;;;;5037498;28;20053;-60
2024/04/05 10:52:55;;;;;;;6.68;1.50;;;;;;;;;;5033681;28;20060;-60
2024/04/05 10:55:21;;;;;;;4.50;1.65;;;;;;;;;;5032882;28;20257;-60
2024/04/05 10:57:48;;;;;;;4.53;1.67;;;;;;;;;;5039152;28;20048;-60
2024/04/05 11:00:14;;;;;;;3.13;1.27;;;;;;;;;;5048108;28;20072;-61
2024/04/05 11:02:42;;;;;;;4.80;1.80;;;;;;;;;;5032897;28;20438;-61
2024/04/05 11:05:10;;;;;;;3.67;1.40;;;;;;;;;;5035970;28;20060;-59
2024/04/05 11:07:37;;;;;;;3.40;1.55;;;;;;;;;;5049483;28;20068;-60
2024/04/05 11:10:14;;;;;;;4.53;1.83;;;;;;;;;;5047854;28;20048;-61
2024/04/05 11:12:41;;;;;;;6.13;1.85;;;;;;;;;;5040132;28;20061;-60
2024/04/05 11:15:07;;;;;;;3.88;1.60;;;;;;;;;;5045283;28;20053;-60
2024/04/05 11:17:34;;;;;;;4.13;1.75;;;;;;;;;;5043039;28;20044;-60
2024/04/05 11:20:07;;;;;;;5.78;1.70;;;;;;;;;;5045793;28;20045;-59
2024/04/05 11:22:34;;;;;;;5.93;1.67;;;;;;;;;;5030653;28;20072;-60
2024/04/05 11:25:00;;;;;;;4.05;1.80;;;;;;;;;;5033041;28;20410;-60
2024/04/05 11:27:29;;;;;;;3.92;1.70;;;;;;;;;;5039954;28;20132;-61
2024/04/05 11:29:55;;;;;;;4.85;2.03;;;;;;;;;;5041217;28;20045;-60
2024/04/05 11:32:26;;;;;;;3.85;1.70;;;;;;;;;;5045356;28;20542;-60
2024/04/05 11:34:52;;;;;;;5.95;1.67;;;;;;;;;;5050139;28;20059;-60
2024/04/05 11:37:21;;;;;;;3.20;1.27;;;;;;;;;;5038806;28;20041;-60
2024/04/05 11:39:47;;;;;;;3.90;1.40;;;;;;;;;;5048270;28;20049;-60
2024/04/05 11:42:14;;;;;;;4.05;1.80;;;;;;;;;;5050152;28;20176;-60
2024/04/05 11:44:41;;;;;;;4.00;1.77;;;;;;;;;;5034875;28;20379;-60
2024/04/05 11:47:08;;;;;;;6.03;1.85;;;;;;;;;;5031513;28;20052;-60
2024/04/05 11:49:34;;;;;;;3.65;1.50;;;;;;;;;;5039389;28;20418;-60
2024/04/05 11:52:01;;;;;;;3.85;1.80;;;;;;;;;;5049745;28;20056;-62
2024/04/05 11:54:27;;;;;;;5.63;1.63;;;;;;;;;;5039137;28;20049;-60
2024/04/05 11:56:53;;;;;;;3.22;1.42;;;;;;;;;;5030700;28;20379;-58
2024/04/05 11:59:19;;;;;;;3.90;1.42;;;;;;;;;;5031850;28;20064;-60
2024/04/05 12:01:48;;;;;;;2.72;1.52;;;;;;;;;;5044130;28;20383;-60
2024/04/05 12:04:13;;;;;;;3.13;1.52;;;;;;;;;;5048805;28;20060;-64
2024/04/05 12:06:40;;;;;;;3.65;1.52;;;;;;;;;;5038617;28;20045;-64
2024/04/05 12:09:08;;;;;;;5.57;1.75;;;;;;;;;;5043207;28;20064;-64
2024/04/05 12:11:34;;;;;;;4.78;1.83;;;;;;;;;;5039627;28;21391;-64
2024/04/05 12:14:00;;;;;;;5.68;1.48;;;;;;;;;;5043171;28;20044;-64
2024/04/05 12:16:27;;;;;;;4.18;1.60;;;;;;;;;;5036982;28;20344;-63
2024/04/05 12:18:54;;;;;;;4.55;1.58;;;;;;;;;;5030279;28;20080;-63
2024/04/05 12:21:21;;;;;;;2.63;1.33;;;;;;;;;;5029539;28;20045;-60
2024/04/05 12:23:47;;;;;;;4.85;1.60;;;;;;;;;;5029148;28;20060;-61
2024/04/05 12:26:14;;;;;;;5.70;1.63;;;;;;;;;;5048234;28;20049;-61
2024/04/05 12:28:40;;;;;;;8.25;1.70;;;;;;;;;;5052325;28;20064;-61
2024/04/05 12:31:08;;;;;;;3.03;1.50;;;;;;;;;;5049963;28;20131;-60
2024/04/05 12:33:34;;;;;;;5.00;1.85;;;;;;;;;;5049677;28;20159;-70
2024/04/05 12:36:03;;;;;;;3.00;1.23;;;;;;;;;;5048548;28;20135;-62
2024/04/05 12:38:29;;;;;;;;;;;;;;;;;;5046586;28;20403;-62
2024/04/05 12:40:56;;;;;;;2.80;1.60;;;;;;;;;;5040484;28;19921;-63
2024/04/05 12:43:21;;;;;;;4.40;2.03;;;;;;;;;;5041931;28;20045;-63
2024/04/05 12:45:57;;;;;;;4.38;1.63;;;;;;;;;;5039296;28;20497;-63
2024/04/05 12:48:23;;;;;;;5.03;1.58;;;;;;;;;;5044182;28;20408;-65
2024/04/05 12:50:54;;;;;;;4.75;1.70;;;;;;;;;;5048836;28;20045;-64
2024/04/05 12:53:21;;;;;;;4.88;2.00;;;;;;;;;;5051678;28;20060;-65
2024/04/05 12:55:55;;;;;;;3.92;1.60;;;;;;;;;;5051956;28;20053;-64
2024/04/05 12:58:21;;;;;;;6.35;2.35;;;;;;;;;;5051862;28;20052;-64
2024/04/05 13:00:50;;;;;;;4.40;1.85;;;;;;;;;;5049129;28;20505;-63
2024/04/05 13:03:16;;;;;;;5.80;2.00;;;;;;;;;;5048895;28;20449;-63
2024/04/05 13:05:43;;;;;;;4.60;2.30;;;;;;;;;;5051748;28;20049;-63
2024/04/05 13:08:09;;;;;;;4.25;1.80;;;;;;;;;;5047232;28;20041;-65
2024/04/05 13:10:38;;;;;;;4.85;2.05;;;;;;;;;;5043394;28;20510;-65
2024/04/05 13:13:04;;;;;;;4.00;1.40;;;;;;;;;;5051294;28;20116;-64
2024/04/05 13:15:33;;;;;;;4.00;1.40;;;;;;;;;;5052853;28;20053;-66
2024/04/05 13:17:59;;;;;;;3.65;1.50;;;;;;;;;;5048558;28;20078;-66
2024/04/05 13:20:26;;;;;;;3.72;1.77;;;;;;;;;;5051129;28;20049;-65
2024/04/05 13:22:52;;;;;;;2.15;1.30;;;;;;;;;;5049696;28;20045;-64
2024/04/05 13:25:20;;;;;;;4.65;1.35;;;;;;;;;;5047709;28;20048;-66
2024/04/05 13:27:47;;;;;;;2.65;1.35;;;;;;;;;;5052480;28;20053;-65
2024/04/05 13:30:14;;;;;;;2.85;1.40;;;;;;;;;;5049021;28;20076;-64
2024/04/05 13:32:41;;;;;;;4.05;1.35;;;;;;;;;;5041843;28;20053;-64
2024/04/05 13:35:08;;;;;;;2.38;1.20;;;;;;;;;;5051677;28;20041;-64
2024/04/05 13:37:34;;;;;;;3.38;1.08;;;;;;;;;;5053839;28;20049;-64
2024/04/05 13:40:04;;;;;;;3.97;1.20;;;;;;;;;;5049857;28;20045;-65
2024/04/05 13:42:30;;;;;;;2.67;1.27;;;;;;;;;;5052698;28;20049;-65
2024/04/05 13:44:58;;;;;;;5.63;1.55;;;;;;;;;;5037824;28;20049;-65
2024/04/05 13:47:25;;;;;;;3.05;1.80;;;;;;;;;;5035045;28;20060;-65
2024/04/05 13:49:52;;;;;;;2.90;1.40;;;;;;;;;;5034915;28;20053;-65
2024/04/05 13:52:18;;;;;;;4.35;1.42;;;;;;;;;;5050578;28;20414;-66
2024/04/05 13:54:45;;;;;;;3.55;1.60;;;;;;;;;;5052203;28;20049;-66
2024/04/05 13:57:11;;;;;;;3.17;1.63;;;;;;;;;;5050941;28;20056;-67
2024/04/05 13:59:38;;;;;;;3.90;1.85;;;;;;;;;;5051296;28;20136;-66
2024/04/05 14:02:06;;;;;;;3.53;1.40;;;;;;;;;;5048759;28;20063;-66
2024/04/05 14:04:33;;;;;;;5.53;1.80;;;;;;;;;;5054981;28;20057;-66
2024/04/05 14:06:59;;;;;;;3.30;1.50;;;;;;;;;;5045583;28;20509;-65
2024/04/05 14:09:26;;;;;;;3.95;1.77;;;;;;;;;;5049324;28;20056;-65
2024/04/05 14:11:52;;;;;;;4.43;1.60;;;;;;;;;;5040880;28;20064;-65
2024/04/05 14:14:19;;;;;;;3.45;1.90;;;;;;;;;;5038979;28;20517;-65
2024/04/05 14:16:45;;;;;;;2.63;1.67;;;;;;;;;;5033876;28;20053;-65
2024/04/05 14:19:13;;;;;;;4.03;1.75;;;;;;;;;;5033952;28;20053;-66
2024/04/05 14:21:39;;;;;;;5.03;1.58;;;;;;;;;;5036177;28;20053;-65
2024/04/05 14:24:06;;;;;;;5.38;1.88;;;;;;;;;;5049155;28;20465;-64
2024/04/05 14:26:32;;;;;;;4.78;1.90;;;;;;;;;;5034836;28;20054;-65
2024/04/05 14:28:59;;;;;;;3.17;1.65;;;;;;;;;;5053627;28;20044;-65
2024/04/05 14:31:24;;;;;;;4.00;1.80;;;;;;;;;;5054192;28;20057;-65
2024/04/05 14:33:51;;;;;;;4.60;2.22;;;;;;;;;;5036929;28;20057;-65
2024/04/05 14:36:19;;;;;;;4.40;1.80;;;;;;;;;;5033541;28;20060;-65